Terminal Aerodrome Forecast
Issued by NWS

Home | Current Version | Previous Version | Text Only | Print | Product List | Glossary On
Versions: 1 2 3 4 5 6 7 8 9 10 11 12 13 14 15 16 17 18 19 20
000
FTUS46 KHNX 170529
TAFBFL
TAF
KBFL 170529Z 1706/1806 01003KT P6SM SKC
     FM171000 05003KT 4SM BR SKC
     FM171200 01003KT 2SM BR SKC
     FM171900 27003KT 4SM HZ SKC=

USA.gov is the U.S. government's official web portal to all federal, state and local government web resources and services.